createdAt,value
2022-10-23T00:16:03.985Z,10.4
2022-10-23T00:46:05.210Z,10.5
2022-10-23T01:16:09.602Z,13.4
2022-10-23T01:46:09.415Z,12.1
2022-10-23T02:16:11.150Z,12.8
2022-10-23T02:46:13.976Z,14.2
2022-10-23T03:16:10.076Z,15.5
2022-10-23T03:46:12.967Z,11.3
2022-10-23T04:16:11.432Z,11.6
2022-10-23T04:46:12.199Z,10.3
2022-10-23T05:16:15.772Z,11.1
2022-10-23T05:46:13.322Z,12.1
2022-10-23T06:16:20.577Z,12.8
2022-10-23T06:46:14.601Z,11.2
2022-10-23T07:16:20.817Z,8.1
2022-10-23T07:46:16.360Z,10.2
2022-10-23T08:16:17.173Z,6.8
2022-10-23T08:46:21.300Z,6.9
2022-10-23T09:16:21.215Z,9.6
2022-10-23T09:46:24.175Z,7.8
2022-10-23T10:16:26.663Z,6.4
2022-10-23T10:46:27.534Z,7.6
2022-10-23T11:16:27.618Z,6.6
2022-10-23T11:46:37.958Z,6
2022-10-23T12:16:39.613Z,4.1
2022-10-23T12:46:44.154Z,4.3
2022-10-23T13:16:33.602Z,6.2
2022-10-23T13:46:33.776Z,4.7
2022-10-23T14:16:34.435Z,6.1
2022-10-23T14:46:38.028Z,5.2
2022-10-23T15:16:41.048Z,6.6
2022-10-23T15:46:40.165Z,8
2022-10-23T16:16:46.027Z,6.1
2022-10-23T16:46:44.520Z,5.5
2022-10-23T17:16:47.847Z,7.1
2022-10-23T17:46:47.836Z,7.6
2022-10-23T18:16:49.567Z,6.2
2022-10-23T18:46:51.285Z,7.9
2022-10-23T19:17:08.363Z,6.7
2022-10-23T19:46:53.767Z,7
2022-10-23T20:16:56.056Z,3.5
2022-10-23T20:47:01.526Z,4.4
2022-10-23T21:16:58.452Z,4.4
2022-10-23T21:46:59.726Z,3.4
2022-10-23T22:17:02.392Z,4.5
2022-10-23T22:47:02.288Z,6.2
2022-10-23T23:17:05.559Z,5.6
2022-10-23T23:47:04.634Z,5
